Station Historical Data
Daily Summary for April 4, 2017 Units:  Both    English   Metric
« Previous Day
Next Day »
Daily Weekly Monthly Yearly Custom
  High: Low: Average:
Temperature: 59.7 °F /  15.4 °C 40.4 °F /  4.7 °C 49.9 °F /  9.9 °C
Dew Point: 54.7 °F /  12.6 °C 36.8 °F /  2.7 °C 46.1 °F /  7.8 °C
Humidity: 91% 79% 87%
Wind Speed: 19.0mph /  30.6km/h - 7.4mph /  11.9km/h
Wind Gust: 37.0mph /  59.5km/h - -
Wind- - SSW
Pressure: 29.77 in /  1008 hPa 29.35 in /  993.8 hPa -
Precipitation: 0.00 in /  0 mm    
Historical Graphs
 
 
Tabular Data for April 4, 2017
Time Temperature Dew Point Pressure Wind Wind Speed Wind Gust Humidity Rainfall Rate (Hourly)
00:04 54.4 °F /  12.4 °C 50.9 °F /  10.5 °C 29.50in /  998.9hPa ENE 3.0mph /  4.8km/h 6.0mph /  9.7km/h 88% 0.25in /  6.35mm
00:09 54.3 °F /  12.4 °C 50.8 °F /  10.4 °C 29.49in /  998.5hPa East 2.0mph /  3.2km/h 5.0mph /  8km/h 88% 0.25in /  6.35mm
00:14 54.2 °F /  12.3 °C 51.0 °F /  10.6 °C 29.49in /  998.5hPa SE 2.0mph /  3.2km/h 7.0mph /  11.3km/h 89% 0.25in /  6.35mm
00:19 54.2 °F /  12.3 °C 51.0 °F /  10.6 °C 29.49in /  998.5hPa ENE 2.0mph /  3.2km/h 6.0mph /  9.7km/h 89% 0.23in /  5.84mm
00:24 54.1 °F /  12.3 °C 50.9 °F /  10.5 °C 29.48in /  998.2hPa East 3.0mph /  4.8km/h 5.0mph /  8km/h 89% 0.22in /  5.59mm
00:29 54.1 °F /  12.3 °C 50.9 °F /  10.5 °C 29.48in /  998.2hPa East 3.0mph /  4.8km/h 7.0mph /  11.3km/h 89% 0.21in /  5.33mm
00:34 54.0 °F /  12.2 °C 50.8 °F /  10.4 °C 29.47in /  997.9hPa East 4.0mph /  6.4km/h 10.0mph /  16.1km/h 89% 0.19in /  4.83mm
00:39 53.9 °F /  12.2 °C 50.7 °F /  10.4 °C 29.47in /  997.9hPa East 4.0mph /  6.4km/h 10.0mph /  16.1km/h 89% 0.16in /  4.06mm
00:44 53.8 °F /  12.1 °C 50.6 °F /  10.3 °C 29.47in /  997.9hPa East 3.0mph /  4.8km/h 8.0mph /  12.9km/h 89% 0.14in /  3.56mm
00:49 53.7 °F /  12.1 °C 50.5 °F /  10.3 °C 29.47in /  997.9hPa East 3.0mph /  4.8km/h 8.0mph /  12.9km/h 89% 0.12in /  3.05mm
00:54 53.6 °F /  12 °C 50.4 °F /  10.2 °C 29.46in /  997.5hPa ESE 3.0mph /  4.8km/h 8.0mph /  12.9km/h 89% 0.12in /  3.05mm
00:59 53.5 °F /  11.9 °C 50.3 °F /  10.2 °C 29.46in /  997.5hPa ESE 3.0mph /  4.8km/h 9.0mph /  14.5km/h 89% 0.10in /  2.54mm
01:04 53.4 °F /  11.9 °C 50.2 °F /  10.1 °C 29.45in /  997.2hPa SE 2.0mph /  3.2km/h 8.0mph /  12.9km/h 89% 0.10in /  2.54mm
01:09 53.4 °F /  11.9 °C 50.2 °F /  10.1 °C 29.45in /  997.2hPa East 5.0mph /  8km/h 5.0mph /  8km/h 89% 0.10in /  2.54mm
01:14 53.3 °F /  11.8 °C 50.1 °F /  10.1 °C 29.45in /  997.2hPa SSE 4.0mph /  6.4km/h 7.0mph /  11.3km/h 89% 0.10in /  2.54mm
01:19 53.3 °F /  11.8 °C 50.1 °F /  10.1 °C 29.45in /  997.2hPa ESE 2.0mph /  3.2km/h 6.0mph /  9.7km/h 89% 0.10in /  2.54mm
01:24 53.2 °F /  11.8 °C 50.0 °F /  10 °C 29.45in /  997.2hPa SE 3.0mph /  4.8km/h 5.0mph /  8km/h 89% 0.10in /  2.54mm
01:29 53.2 °F /  11.8 °C 50.0 °F /  10 °C 29.45in /  997.2hPa SE 2.0mph /  3.2km/h 6.0mph /  9.7km/h 89% 0.09in /  2.29mm
01:34 53.1 °F /  11.7 °C 49.9 °F /  9.9 °C 29.45in /  997.2hPa SE 1.0mph /  1.6km/h 6.0mph /  9.7km/h 89% 0.08in /  2.03mm
01:39 53.0 °F /  11.7 °C 49.8 °F /  9.9 °C 29.44in /  996.8hPa SE 1.0mph /  1.6km/h 4.0mph /  6.4km/h 89% 0.09in /  2.29mm
01:44 53.0 °F /  11.7 °C 50.1 °F /  10.1 °C 29.44in /  996.8hPa SE 2.0mph /  3.2km/h 5.0mph /  8km/h 90% 0.08in /  2.03mm
01:49 53.0 °F /  11.7 °C 50.1 °F /  10.1 °C 29.44in /  996.8hPa SE 2.0mph /  3.2km/h 5.0mph /  8km/h 90% 0.07in /  1.78mm
01:54 53.0 °F /  11.7 °C 50.1 °F /  10.1 °C 29.43in /  996.5hPa SSE 2.0mph /  3.2km/h 6.0mph /  9.7km/h 90% 0.05in /  1.27mm
01:59 53.0 °F /  11.7 °C 50.1 °F /  10.1 °C 29.43in /  996.5hPa SSW 1.0mph /  1.6km/h 7.0mph /  11.3km/h 90% 0.05in /  1.27mm
02:04 53.0 °F /  11.7 °C 49.8 °F /  9.9 °C 29.42in /  996.2hPa SSE 4.0mph /  6.4km/h 6.0mph /  9.7km/h 89% 0.05in /  1.27mm
02:09 53.0 °F /  11.7 °C 49.8 °F /  9.9 °C 29.42in /  996.2hPa South 3.0mph /  4.8km/h 6.0mph /  9.7km/h 89% 0.04in /  1.02mm
02:14 53.0 °F /  11.7 °C 49.8 °F /  9.9 °C 29.42in /  996.2hPa South 3.0mph /  4.8km/h 7.0mph /  11.3km/h 89% 0.03in /  0.76mm
02:19 53.1 °F /  11.7 °C 49.9 °F /  9.9 °C 29.41in /  995.8hPa South 3.0mph /  4.8km/h 8.0mph /  12.9km/h 89% 0.03in /  0.76mm
02:24 53.1 °F /  11.7 °C 49.9 °F /  9.9 °C 29.40in /  995.5hPa South 2.0mph /  3.2km/h 9.0mph /  14.5km/h 89% 0.03in /  0.76mm
02:29 53.1 °F /  11.7 °C 49.9 °F /  9.9 °C 29.40in /  995.5hPa SSE 4.0mph /  6.4km/h 8.0mph /  12.9km/h 89% 0.02in /  0.51mm
02:34 53.2 °F /  11.8 °C 49.7 °F /  9.8 °C 29.40in /  995.5hPa SSE 4.0mph /  6.4km/h 8.0mph /  12.9km/h 88% 0.02in /  0.51mm
02:39 53.2 °F /  11.8 °C 49.7 °F /  9.8 °C 29.39in /  995.1hPa South 4.0mph /  6.4km/h 10.0mph /  16.1km/h 88% 0.01in /  0.25mm
02:44 53.3 °F /  11.8 °C 49.8 °F /  9.9 °C 29.39in /  995.1hPa South 5.0mph /  8km/h 10.0mph /  16.1km/h 88% 0.01in /  0.25mm
02:49 53.4 °F /  11.9 °C 49.9 °F /  9.9 °C 29.39in /  995.1hPa South 4.0mph /  6.4km/h 8.0mph /  12.9km/h 88% 0.01in /  0.25mm
02:54 53.5 °F /  11.9 °C 50.0 °F /  10 °C 29.38in /  994.8hPa South 4.0mph /  6.4km/h 8.0mph /  12.9km/h 88% 0.01in /  0.25mm
02:59 53.5 °F /  11.9 °C 50.0 °F /  10 °C 29.38in /  994.8hPa South 4.0mph /  6.4km/h 6.0mph /  9.7km/h 88% 0.01in /  0.25mm
03:04 53.7 °F /  12.1 °C 49.9 °F /  9.9 °C 29.38in /  994.8hPa South 4.0mph /  6.4km/h 7.0mph /  11.3km/h 87% 0.01in /  0.25mm
03:09 53.8 °F /  12.1 °C 50.0 °F /  10 °C 29.37in /  994.5hPa South 4.0mph /  6.4km/h 7.0mph /  11.3km/h 87% 0.01in /  0.25mm
03:14 53.8 °F /  12.1 °C 50.0 °F /  10 °C 29.37in /  994.5hPa South 4.0mph /  6.4km/h 5.0mph /  8km/h 87% 0.01in /  0.25mm
03:19 53.9 °F /  12.2 °C 50.1 °F /  10.1 °C 29.37in /  994.5hPa South 3.0mph /  4.8km/h 5.0mph /  8km/h 87% 0.01in /  0.25mm
03:24 54.0 °F /  12.2 °C 50.2 °F /  10.1 °C 29.37in /  994.5hPa South 4.0mph /  6.4km/h 9.0mph /  14.5km/h 87% 0.00in /  0mm
03:29 54.1 °F /  12.3 °C 50.0 °F /  10 °C 29.36in /  994.1hPa SSE 3.0mph /  4.8km/h 5.0mph /  8km/h 86% 0.00in /  0mm
03:34 54.1 °F /  12.3 °C 50.0 °F /  10 °C 29.36in /  994.1hPa South 1.0mph /  1.6km/h 4.0mph /  6.4km/h 86% 0.00in /  0mm
03:39 54.2 °F /  12.3 °C 50.1 °F /  10.1 °C 29.37in /  994.5hPa South 2.0mph /  3.2km/h 6.0mph /  9.7km/h 86% 0.00in /  0mm
03:44 54.3 °F /  12.4 °C 50.2 °F /  10.1 °C 29.36in /  994.1hPa SSW 4.0mph /  6.4km/h 6.0mph /  9.7km/h 86% 0.00in /  0mm
03:49 54.3 °F /  12.4 °C 50.2 °F /  10.1 °C 29.37in /  994.5hPa South 3.0mph /  4.8km/h 6.0mph /  9.7km/h 86% 0.00in /  0mm
03:54 54.2 °F /  12.3 °C 50.1 °F /  10.1 °C 29.36in /  994.1hPa South 3.0mph /  4.8km/h 6.0mph /  9.7km/h 86% 0.00in /  0mm
03:59 54.5 °F /  12.5 °C 50.4 °F /  10.2 °C 29.36in /  994.1hPa SSW 3.0mph /  4.8km/h 8.0mph /  12.9km/h 86% 0.00in /  0mm
04:04 54.8 °F /  12.7 °C 50.4 °F /  10.2 °C 29.36in /  994.1hPa SSW 3.0mph /  4.8km/h 8.0mph /  12.9km/h 85% 0.00in /  0mm
04:09 54.8 °F /  12.7 °C 50.4 °F /  10.2 °C 29.36in /  994.1hPa SSW 2.0mph /  3.2km/h 7.0mph /  11.3km/h 85% 0.00in /  0mm
04:14 54.7 °F /  12.6 °C 50.3 °F /  10.2 °C 29.36in /  994.1hPa SSW 2.0mph /  3.2km/h 4.0mph /  6.4km/h 85% 0.00in /  0mm
04:19 54.7 °F /  12.6 °C 50.3 °F /  10.2 °C 29.36in /  994.1hPa SW 3.0mph /  4.8km/h 7.0mph /  11.3km/h 85% 0.00in /  0mm
04:24 54.9 °F /  12.7 °C 50.8 °F /  10.4 °C 29.36in /  994.1hPa SSW 3.0mph /  4.8km/h 7.0mph /  11.3km/h 86% 0.00in /  0mm
04:29 55.3 °F /  12.9 °C 51.2 °F /  10.7 °C 29.36in /  994.1hPa SSW 3.0mph /  4.8km/h 7.0mph /  11.3km/h 86% 0.00in /  0mm
04:34 55.7 °F /  13.2 °C 51.3 °F /  10.7 °C 29.36in /  994.1hPa WSW 4.0mph /  6.4km/h 7.0mph /  11.3km/h 85% 0.00in /  0mm
04:39 56.2 °F /  13.4 °C 51.4 °F /  10.8 °C 29.36in /  994.1hPa SSW 4.0mph /  6.4km/h 8.0mph /  12.9km/h 84% 0.00in /  0mm
04:44 56.5 °F /  13.6 °C 51.4 °F /  10.8 °C 29.36in /  994.1hPa South 6.0mph /  9.7km/h 7.0mph /  11.3km/h 83% 0.00in /  0mm
04:49 56.6 °F /  13.7 °C 51.5 °F /  10.8 °C 29.36in /  994.1hPa South 6.0mph /  9.7km/h 8.0mph /  12.9km/h 83% 0.00in /  0mm
04:54 56.6 °F /  13.7 °C 51.5 °F /  10.8 °C 29.36in /  994.1hPa SSE 4.0mph /  6.4km/h 8.0mph /  12.9km/h 83% 0.00in /  0mm
04:59 56.4 °F /  13.6 °C 51.3 °F /  10.7 °C 29.36in /  994.1hPa SSW 4.0mph /  6.4km/h 10.0mph /  16.1km/h 83% 0.00in /  0mm
05:04 56.2 °F /  13.4 °C 50.8 °F /  10.4 °C 29.36in /  994.1hPa SSW 5.0mph /  8km/h 12.0mph /  19.3km/h 82% 0.00in /  0mm
05:09 56.0 °F /  13.3 °C 50.6 °F /  10.3 °C 29.36in /  994.1hPa SSW 5.0mph /  8km/h 12.0mph /  19.3km/h 82% 0.00in /  0mm
05:14 55.8 °F /  13.2 °C 50.7 °F /  10.4 °C 29.36in /  994.1hPa South 5.0mph /  8km/h 8.0mph /  12.9km/h 83% 0.00in /  0mm
05:19 55.5 °F /  13.1 °C 50.4 °F /  10.2 °C 29.36in /  994.1hPa South 4.0mph /  6.4km/h 8.0mph /  12.9km/h 83% 0.00in /  0mm
05:24 55.3 °F /  12.9 °C 50.5 °F /  10.3 °C 29.36in /  994.1hPa South 3.0mph /  4.8km/h 6.0mph /  9.7km/h 84% 0.00in /  0mm
05:29 55.2 °F /  12.9 °C 50.4 °F /  10.2 °C 29.36in /  994.1hPa South 4.0mph /  6.4km/h 8.0mph /  12.9km/h 84% 0.00in /  0mm
05:34 55.1 °F /  12.8 °C 50.4 °F /  10.2 °C 29.36in /  994.1hPa South 3.0mph /  4.8km/h 7.0mph /  11.3km/h 84% 0.00in /  0mm
05:39 55.1 °F /  12.8 °C 50.4 °F /  10.2 °C 29.36in /  994.1hPa South 5.0mph /  8km/h 7.0mph /  11.3km/h 84% 0.00in /  0mm
05:44 55.1 °F /  12.8 °C 50.4 °F /  10.2 °C 29.36in /  994.1hPa SSW 3.0mph /  4.8km/h 7.0mph /  11.3km/h 84% 0.00in /  0mm
05:49 55.1 °F /  12.8 °C 50.7 °F /  10.4 °C 29.36in /  994.1hPa SSW 6.0mph /  9.7km/h 7.0mph /  11.3km/h 85% 0.00in /  0mm
05:54 55.1 °F /  12.8 °C 50.7 °F /  10.4 °C 29.36in /  994.1hPa SSW 1.0mph /  1.6km/h 8.0mph /  12.9km/h 85% 0.00in /  0mm
05:59 55.0 °F /  12.8 °C 50.6 °F /  10.3 °C 29.36in /  994.1hPa South 3.0mph /  4.8km/h 7.0mph /  11.3km/h 85% 0.00in /  0mm
06:04 54.9 °F /  12.7 °C 50.8 °F /  10.4 °C 29.36in /  994.1hPa SSW 3.0mph /  4.8km/h 7.0mph /  11.3km/h 86% 0.00in /  0mm
06:09 54.8 °F /  12.7 °C 50.7 °F /  10.4 °C 29.37in /  994.5hPa SSW 3.0mph /  4.8km/h 7.0mph /  11.3km/h 86% 0.00in /  0mm
06:14 54.7 °F /  12.6 °C 50.9 °F /  10.5 °C 29.36in /  994.1hPa SSW 3.0mph /  4.8km/h 8.0mph /  12.9km/h 87% 0.02in /  0.51mm
06:19 54.5 °F /  12.5 °C 51.0 °F /  10.6 °C 29.36in /  994.1hPa South 3.0mph /  4.8km/h 8.0mph /  12.9km/h 88% 0.03in /  0.76mm
06:24 54.4 °F /  12.4 °C 50.9 °F /  10.5 °C 29.37in /  994.5hPa SSW 3.0mph /  4.8km/h 5.0mph /  8km/h 88% 0.04in /  1.02mm
06:29 54.4 °F /  12.4 °C 51.2 °F /  10.7 °C 29.36in /  994.1hPa SSW 2.0mph /  3.2km/h 4.0mph /  6.4km/h 89% 0.04in /  1.02mm
06:34 54.3 °F /  12.4 °C 51.1 °F /  10.6 °C 29.36in /  994.1hPa South 1.0mph /  1.6km/h 2.0mph /  3.2km/h 89% 0.05in /  1.27mm
06:39 54.2 °F /  12.3 °C 51.0 °F /  10.6 °C 29.36in /  994.1hPa South 1.0mph /  1.6km/h 3.0mph /  4.8km/h 89% 0.05in /  1.27mm
06:44 54.3 °F /  12.4 °C 51.1 °F /  10.6 °C 29.36in /  994.1hPa SSE 1.0mph /  1.6km/h 4.0mph /  6.4km/h 89% 0.05in /  1.27mm
06:49 54.5 °F /  12.5 °C 51.3 °F /  10.7 °C 29.36in /  994.1hPa South 1.0mph /  1.6km/h 4.0mph /  6.4km/h 89% 0.05in /  1.27mm
06:54 54.6 °F /  12.6 °C 51.4 °F /  10.8 °C 29.36in /  994.1hPa SSE 4.0mph /  6.4km/h 5.0mph /  8km/h 89% 0.05in /  1.27mm
06:59 54.7 °F /  12.6 °C 51.5 °F /  10.8 °C 29.36in /  994.1hPa SSE 2.0mph /  3.2km/h 6.0mph /  9.7km/h 89% 0.05in /  1.27mm
07:04 54.9 °F /  12.7 °C 51.7 °F /  10.9 °C 29.36in /  994.1hPa SSE 4.0mph /  6.4km/h 6.0mph /  9.7km/h 89% 0.05in /  1.27mm
07:09 54.9 °F /  12.7 °C 51.4 °F /  10.8 °C 29.36in /  994.1hPa SSE 3.0mph /  4.8km/h 6.0mph /  9.7km/h 88% 0.05in /  1.27mm
07:14 55.0 °F /  12.8 °C 51.5 °F /  10.8 °C 29.36in /  994.1hPa South 3.0mph /  4.8km/h 5.0mph /  8km/h 88% 0.03in /  0.76mm
07:19 55.1 °F /  12.8 °C 51.6 °F /  10.9 °C 29.36in /  994.1hPa South 3.0mph /  4.8km/h 7.0mph /  11.3km/h 88% 0.02in /  0.51mm
07:24 55.3 °F /  12.9 °C 51.8 °F /  11 °C 29.36in /  994.1hPa South 4.0mph /  6.4km/h 8.0mph /  12.9km/h 88% 0.01in /  0.25mm
07:29 55.5 °F /  13.1 °C 51.7 °F /  10.9 °C 29.36in /  994.1hPa South 4.0mph /  6.4km/h 9.0mph /  14.5km/h 87% 0.01in /  0.25mm
07:34 55.7 °F /  13.2 °C 51.9 °F /  11.1 °C 29.36in /  994.1hPa South 5.0mph /  8km/h 9.0mph /  14.5km/h 87% 0.00in /  0mm
07:39 55.9 °F /  13.3 °C 51.8 °F /  11 °C 29.36in /  994.1hPa South 10.0mph /  16.1km/h 11.0mph /  17.7km/h 86% 0.00in /  0mm
07:44 56.1 °F /  13.4 °C 52.0 °F /  11.1 °C 29.36in /  994.1hPa SSW 2.0mph /  3.2km/h 9.0mph /  14.5km/h 86% 0.00in /  0mm
07:49 56.2 °F /  13.4 °C 52.1 °F /  11.2 °C 29.36in /  994.1hPa South 4.0mph /  6.4km/h 9.0mph /  14.5km/h 86% 0.00in /  0mm
07:54 56.4 °F /  13.6 °C 52.3 °F /  11.3 °C 29.36in /  994.1hPa SSW 5.0mph /  8km/h 10.0mph /  16.1km/h 86% 0.00in /  0mm
07:59 56.5 °F /  13.6 °C 52.0 °F /  11.1 °C 29.36in /  994.1hPa South 5.0mph /  8km/h 10.0mph /  16.1km/h 85% 0.00in /  0mm
08:04 56.7 °F /  13.7 °C 52.2 °F /  11.2 °C 29.36in /  994.1hPa SSW 3.0mph /  4.8km/h 7.0mph /  11.3km/h 85% 0.00in /  0mm
08:09 56.9 °F /  13.8 °C 52.4 °F /  11.3 °C 29.36in /  994.1hPa South 3.0mph /  4.8km/h 9.0mph /  14.5km/h 85% 0.00in /  0mm
08:14 57.1 °F /  13.9 °C 52.6 °F /  11.4 °C 29.36in /  994.1hPa SSE 4.0mph /  6.4km/h 8.0mph /  12.9km/h 85% 0.00in /  0mm
08:19 57.3 °F /  14.1 °C 52.5 °F /  11.4 °C 29.36in /  994.1hPa South 5.0mph /  8km/h 9.0mph /  14.5km/h 84% 0.00in /  0mm
08:24 57.4 °F /  14.1 °C 52.6 °F /  11.4 °C 29.36in /  994.1hPa South 5.0mph /  8km/h 12.0mph /  19.3km/h 84% 0.00in /  0mm
08:29 57.6 °F /  14.2 °C 52.8 °F /  11.6 °C 29.36in /  994.1hPa South 5.0mph /  8km/h 12.0mph /  19.3km/h 84% 0.00in /  0mm
08:34 57.6 °F /  14.2 °C 52.8 °F /  11.6 °C 29.36in /  994.1hPa South 5.0mph /  8km/h 10.0mph /  16.1km/h 84% 0.00in /  0mm
08:39 57.7 °F /  14.3 °C 53.2 °F /  11.8 °C 29.36in /  994.1hPa South 5.0mph /  8km/h 10.0mph /  16.1km/h 85% 0.00in /  0mm
08:44 57.7 °F /  14.3 °C 52.9 °F /  11.6 °C 29.36in /  994.1hPa SSW 4.0mph /  6.4km/h 7.0mph /  11.3km/h 84% 0.00in /  0mm
08:49 57.7 °F /  14.3 °C 52.9 °F /  11.6 °C 29.36in /  994.1hPa South 5.0mph /  8km/h 12.0mph /  19.3km/h 84% 0.00in /  0mm
08:54 57.7 °F /  14.3 °C 52.9 °F /  11.6 °C 29.36in /  994.1hPa South 6.0mph /  9.7km/h 12.0mph /  19.3km/h 84% 0.00in /  0mm
08:59 57.7 °F /  14.3 °C 53.2 °F /  11.8 °C 29.36in /  994.1hPa South 4.0mph /  6.4km/h 9.0mph /  14.5km/h 85% 0.00in /  0mm
09:04 57.8 °F /  14.3 °C 53.3 °F /  11.8 °C 29.36in /  994.1hPa South 6.0mph /  9.7km/h 8.0mph /  12.9km/h 85% 0.00in /  0mm
09:09 58.0 °F /  14.4 °C 53.2 °F /  11.8 °C 29.35in /  993.8hPa South 6.0mph /  9.7km/h 11.0mph /  17.7km/h 84% 0.00in /  0mm
09:14 58.2 °F /  14.6 °C 53.4 °F /  11.9 °C 29.35in /  993.8hPa South 6.0mph /  9.7km/h 8.0mph /  12.9km/h 84% 0.00in /  0mm
09:19 58.3 °F /  14.6 °C 53.5 °F /  11.9 °C 29.35in /  993.8hPa South 5.0mph /  8km/h 10.0mph /  16.1km/h 84% 0.00in /  0mm
09:24 59.5 °F /  15.3 °C 54.7 °F /  12.6 °C 29.35in /  993.8hPa South 5.0mph /  8km/h 11.0mph /  17.7km/h 84% 0.00in /  0mm
09:29 59.7 °F /  15.4 °C 54.5 °F /  12.5 °C 29.35in /  993.8hPa SSW 5.0mph /  8km/h 11.0mph /  17.7km/h 83% 0.00in /  0mm
09:34 59.7 °F /  15.4 °C 54.5 °F /  12.5 °C 29.35in /  993.8hPa SSW 4.0mph /  6.4km/h 7.0mph /  11.3km/h 83% 0.00in /  0mm
09:39 59.3 °F /  15.2 °C 54.1 °F /  12.3 °C 29.35in /  993.8hPa SSW 4.0mph /  6.4km/h 8.0mph /  12.9km/h 83% 0.01in /  0.25mm
09:44 59.0 °F /  15 °C 54.2 °F /  12.3 °C 29.35in /  993.8hPa South 4.0mph /  6.4km/h 9.0mph /  14.5km/h 84% 0.01in /  0.25mm
09:49 58.7 °F /  14.8 °C 53.9 °F /  12.2 °C 29.36in /  994.1hPa SW 6.0mph /  9.7km/h 11.0mph /  17.7km/h 84% 0.01in /  0.25mm
09:54 58.7 °F /  14.8 °C 54.2 °F /  12.3 °C 29.35in /  993.8hPa SW 6.0mph /  9.7km/h 16.0mph /  25.7km/h 85% 0.01in /  0.25mm
09:59 58.5 °F /  14.7 °C 54.3 °F /  12.4 °C 29.35in /  993.8hPa SW 7.0mph /  11.3km/h 16.0mph /  25.7km/h 86% 0.01in /  0.25mm
10:04 58.6 °F /  14.8 °C 54.4 °F /  12.4 °C 29.35in /  993.8hPa SW 6.0mph /  9.7km/h 14.0mph /  22.5km/h 86% 0.01in /  0.25mm
10:09 58.8 °F /  14.9 °C 54.6 °F /  12.6 °C 29.35in /  993.8hPa SW 5.0mph /  8km/h 10.0mph /  16.1km/h 86% 0.01in /  0.25mm
10:14 58.8 °F /  14.9 °C 54.6 °F /  12.6 °C 29.35in /  993.8hPa SW 4.0mph /  6.4km/h 10.0mph /  16.1km/h 86% 0.01in /  0.25mm
10:19 58.4 °F /  14.7 °C 54.2 °F /  12.3 °C 29.36in /  994.1hPa WSW 4.0mph /  6.4km/h 9.0mph /  14.5km/h 86% 0.01in /  0.25mm
10:25 57.7 °F /  14.3 °C 53.5 °F /  11.9 °C 29.36in /  994.1hPa WSW 2.0mph /  3.2km/h 10.0mph /  16.1km/h 86% 0.01in /  0.25mm
10:34 56.2 °F /  13.4 °C 52.1 °F /  11.2 °C 29.37in /  994.5hPa WSW 9.0mph /  14.5km/h 13.0mph /  20.9km/h 86% 0.01in /  0.25mm
10:39 55.6 °F /  13.1 °C 51.8 °F /  11 °C 29.37in /  994.5hPa WSW 7.0mph /  11.3km/h 13.0mph /  20.9km/h 87% 0.00in /  0mm
10:44 55.3 °F /  12.9 °C 51.8 °F /  11 °C 29.37in /  994.5hPa WNW 7.0mph /  11.3km/h 8.0mph /  12.9km/h 88% 0.00in /  0mm
10:49 55.3 °F /  12.9 °C 52.1 °F /  11.2 °C 29.37in /  994.5hPa WNW 5.0mph /  8km/h 9.0mph /  14.5km/h 89% 0.00in /  0mm
10:54 55.2 °F /  12.9 °C 52.0 °F /  11.1 °C 29.38in /  994.8hPa West 11.0mph /  17.7km/h 14.0mph /  22.5km/h 89% 0.01in /  0.25mm
10:59 54.8 °F /  12.7 °C 51.6 °F /  10.9 °C 29.38in /  994.8hPa WSW 7.0mph /  11.3km/h 19.0mph /  30.6km/h 89% 0.01in /  0.25mm
11:04 54.2 °F /  12.3 °C 51.0 °F /  10.6 °C 29.38in /  994.8hPa WSW 8.0mph /  12.9km/h 19.0mph /  30.6km/h 89% 0.03in /  0.76mm
11:09 54.2 °F /  12.3 °C 51.3 °F /  10.7 °C 29.38in /  994.8hPa WNW 14.0mph /  22.5km/h 18.0mph /  29km/h 90% 0.05in /  1.27mm
11:14 54.4 °F /  12.4 °C 51.8 °F /  11 °C 29.38in /  994.8hPa WSW 10.0mph /  16.1km/h 18.0mph /  29km/h 91% 0.05in /  1.27mm
11:19 54.4 °F /  12.4 °C 51.8 °F /  11 °C 29.38in /  994.8hPa WSW 10.0mph /  16.1km/h 18.0mph /  29km/h 91% 0.06in /  1.52mm
11:24 54.1 °F /  12.3 °C 51.5 °F /  10.8 °C 29.38in /  994.8hPa WSW 10.0mph /  16.1km/h 23.0mph /  37km/h 91% 0.06in /  1.52mm
11:29 54.1 °F /  12.3 °C 51.2 °F /  10.7 °C 29.38in /  994.8hPa WSW 17.0mph /  27.4km/h 19.0mph /  30.6km/h 90% 0.06in /  1.52mm
11:34 53.7 °F /  12.1 °C 51.1 °F /  10.6 °C 29.38in /  994.8hPa SW 8.0mph /  12.9km/h 20.0mph /  32.2km/h 91% 0.06in /  1.52mm
11:39 53.7 °F /  12.1 °C 51.1 °F /  10.6 °C 29.39in /  995.1hPa West 8.0mph /  12.9km/h 25.0mph /  40.2km/h 91% 0.06in /  1.52mm
11:44 53.9 °F /  12.2 °C 51.3 °F /  10.7 °C 29.39in /  995.1hPa WSW 12.0mph /  19.3km/h 19.0mph /  30.6km/h 91% 0.06in /  1.52mm
11:49 53.8 °F /  12.1 °C 50.9 °F /  10.5 °C 29.39in /  995.1hPa West 6.0mph /  9.7km/h 25.0mph /  40.2km/h 90% 0.06in /  1.52mm
11:54 53.4 °F /  11.9 °C 50.5 °F /  10.3 °C 29.39in /  995.1hPa SSW 10.0mph /  16.1km/h 21.0mph /  33.8km/h 90% 0.05in /  1.27mm
11:59 53.0 °F /  11.7 °C 50.1 °F /  10.1 °C 29.39in /  995.1hPa SW 4.0mph /  6.4km/h 17.0mph /  27.4km/h 90% 0.05in /  1.27mm
12:04 52.5 °F /  11.4 °C 49.7 °F /  9.8 °C 29.39in /  995.1hPa West 8.0mph /  12.9km/h 18.0mph /  29km/h 90% 0.03in /  0.76mm
12:09 52.0 °F /  11.1 °C 49.2 °F /  9.6 °C 29.39in /  995.1hPa WSW 11.0mph /  17.7km/h 21.0mph /  33.8km/h 90% 0.01in /  0.25mm
12:14 51.4 °F /  10.8 °C 48.6 °F /  9.2 °C 29.39in /  995.1hPa WSW 11.0mph /  17.7km/h 21.0mph /  33.8km/h 90% 0.01in /  0.25mm
12:19 50.8 °F /  10.4 °C 48.0 °F /  8.9 °C 29.39in /  995.1hPa WSW 11.0mph /  17.7km/h 31.0mph /  49.9km/h 90% 0.00in /  0mm
12:24 50.4 °F /  10.2 °C 47.6 °F /  8.7 °C 29.40in /  995.5hPa WSW 12.0mph /  19.3km/h 31.0mph /  49.9km/h 90% 0.00in /  0mm
12:29 50.0 °F /  10 °C 47.2 °F /  8.4 °C 29.40in /  995.5hPa WSW 11.0mph /  17.7km/h 18.0mph /  29km/h 90% 0.00in /  0mm
12:34 49.9 °F /  9.9 °C 47.1 °F /  8.4 °C 29.41in /  995.8hPa West 11.0mph /  17.7km/h 21.0mph /  33.8km/h 90% 0.00in /  0mm
12:39 49.8 °F /  9.9 °C 47.0 °F /  8.3 °C 29.41in /  995.8hPa WSW 10.0mph /  16.1km/h 26.0mph /  41.8km/h 90% 0.00in /  0mm
12:44 49.6 °F /  9.8 °C 46.8 °F /  8.2 °C 29.41in /  995.8hPa WSW 11.0mph /  17.7km/h 25.0mph /  40.2km/h 90% 0.00in /  0mm
12:49 49.6 °F /  9.8 °C 46.8 °F /  8.2 °C 29.41in /  995.8hPa SW 9.0mph /  14.5km/h 21.0mph /  33.8km/h 90% 0.00in /  0mm
12:54 49.2 °F /  9.6 °C 46.1 °F /  7.8 °C 29.42in /  996.2hPa SSE 12.0mph /  19.3km/h 20.0mph /  32.2km/h 89% 0.00in /  0mm
12:59 48.2 °F /  9 °C 45.1 °F /  7.3 °C 29.42in /  996.2hPa SSW 8.0mph /  12.9km/h 18.0mph /  29km/h 89% 0.00in /  0mm
13:04 47.8 °F /  8.8 °C 44.7 °F /  7.1 °C 29.43in /  996.5hPa SW 13.0mph /  20.9km/h 21.0mph /  33.8km/h 89% 0.00in /  0mm
13:09 47.8 °F /  8.8 °C 44.7 °F /  7.1 °C 29.43in /  996.5hPa WSW 11.0mph /  17.7km/h 21.0mph /  33.8km/h 89% 0.00in /  0mm
13:14 47.8 °F /  8.8 °C 44.4 °F /  6.9 °C 29.43in /  996.5hPa WSW 11.0mph /  17.7km/h 20.0mph /  32.2km/h 88% 0.00in /  0mm
13:19 47.8 °F /  8.8 °C 44.1 °F /  6.7 °C 29.44in /  996.8hPa WSW 12.0mph /  19.3km/h 21.0mph /  33.8km/h 87% 0.00in /  0mm
13:24 47.8 °F /  8.8 °C 44.1 °F /  6.7 °C 29.44in /  996.8hPa WSW 11.0mph /  17.7km/h 21.0mph /  33.8km/h 87% 0.00in /  0mm
13:29 48.1 °F /  8.9 °C 44.1 °F /  6.7 °C 29.44in /  996.8hPa WSW 14.0mph /  22.5km/h 19.0mph /  30.6km/h 86% 0.00in /  0mm
13:34 47.6 °F /  8.7 °C 43.3 °F /  6.3 °C 29.45in /  997.2hPa West 6.0mph /  9.7km/h 21.0mph /  33.8km/h 85% 0.00in /  0mm
13:39 47.3 °F /  8.5 °C 43.3 °F /  6.3 °C 29.45in /  997.2hPa SW 12.0mph /  19.3km/h 23.0mph /  37km/h 86% 0.00in /  0mm
13:44 47.0 °F /  8.3 °C 42.7 °F /  5.9 °C 29.45in /  997.2hPa SW 11.0mph /  17.7km/h 23.0mph /  37km/h 85% 0.00in /  0mm
13:49 47.0 °F /  8.3 °C 42.7 °F /  5.9 °C 29.45in /  997.2hPa SW 11.0mph /  17.7km/h 22.0mph /  35.4km/h 85% 0.00in /  0mm
13:54 47.0 °F /  8.3 °C 42.7 °F /  5.9 °C 29.45in /  997.2hPa South 9.0mph /  14.5km/h 20.0mph /  32.2km/h 85% 0.00in /  0mm
13:59 47.1 °F /  8.4 °C 42.5 °F /  5.8 °C 29.45in /  997.2hPa SW 9.0mph /  14.5km/h 23.0mph /  37km/h 84% 0.00in /  0mm
14:04 47.1 °F /  8.4 °C 42.5 °F /  5.8 °C 29.45in /  997.2hPa NW 15.0mph /  24.1km/h 24.0mph /  38.6km/h 84% 0.00in /  0mm
14:09 47.2 °F /  8.4 °C 42.6 °F /  5.9 °C 29.45in /  997.2hPa SW 18.0mph /  29km/h 18.0mph /  29km/h 84% 0.00in /  0mm
14:14 47.2 °F /  8.4 °C 42.3 °F /  5.7 °C 29.45in /  997.2hPa SSW 10.0mph /  16.1km/h 24.0mph /  38.6km/h 83% 0.00in /  0mm
14:19 47.8 °F /  8.8 °C 42.9 °F /  6.1 °C 29.45in /  997.2hPa WSW 12.0mph /  19.3km/h 24.0mph /  38.6km/h 83% 0.00in /  0mm
14:24 48.8 °F /  9.3 °C 43.9 °F /  6.6 °C 29.45in /  997.2hPa WSW 11.0mph /  17.7km/h 22.0mph /  35.4km/h 83% 0.00in /  0mm
14:29 49.7 °F /  9.8 °C 43.8 °F /  6.6 °C 29.45in /  997.2hPa WSW 12.0mph /  19.3km/h 23.0mph /  37km/h 80% 0.00in /  0mm
14:34 48.9 °F /  9.4 °C 42.7 °F /  5.9 °C 29.45in /  997.2hPa SSE 19.0mph /  30.6km/h 25.0mph /  40.2km/h 79% 0.00in /  0mm
14:39 48.6 °F /  9.2 °C 42.7 °F /  5.9 °C 29.45in /  997.2hPa WSW 14.0mph /  22.5km/h 28.0mph /  45.1km/h 80% 0.00in /  0mm
14:44 48.5 °F /  9.2 °C 42.6 °F /  5.9 °C 29.45in /  997.2hPa WSW 11.0mph /  17.7km/h 37.0mph /  59.5km/h 80% 0.00in /  0mm
14:49 48.5 °F /  9.2 °C 42.6 °F /  5.9 °C 29.46in /  997.5hPa WSW 16.0mph /  25.7km/h 37.0mph /  59.5km/h 80% 0.00in /  0mm
14:54 47.9 °F /  8.8 °C 42.0 °F /  5.6 °C 29.46in /  997.5hPa WSW 16.0mph /  25.7km/h 34.0mph /  54.7km/h 80% 0.00in /  0mm
14:59 47.4 °F /  8.6 °C 41.9 °F /  5.5 °C 29.47in /  997.9hPa SW 6.0mph /  9.7km/h 28.0mph /  45.1km/h 81% 0.00in /  0mm
15:04 47.2 °F /  8.4 °C 42.0 °F /  5.6 °C 29.47in /  997.9hPa SW 16.0mph /  25.7km/h 33.0mph /  53.1km/h 82% 0.00in /  0mm
15:09 47.0 °F /  8.3 °C 41.8 °F /  5.4 °C 29.47in /  997.9hPa SW 3.0mph /  4.8km/h 26.0mph /  41.8km/h 82% 0.00in /  0mm
15:14 46.8 °F /  8.2 °C 41.9 °F /  5.5 °C 29.47in /  997.9hPa SSW 17.0mph /  27.4km/h 26.0mph /  41.8km/h 83% 0.00in /  0mm
15:19 46.8 °F /  8.2 °C 41.9 °F /  5.5 °C 29.48in /  998.2hPa SW 12.0mph /  19.3km/h 30.0mph /  48.3km/h 83% 0.00in /  0mm
15:24 46.9 °F /  8.3 °C 42.3 °F /  5.7 °C 29.47in /  997.9hPa SW 15.0mph /  24.1km/h 30.0mph /  48.3km/h 84% 0.00in /  0mm
15:29 47.0 °F /  8.3 °C 42.4 °F /  5.8 °C 29.48in /  998.2hPa WSW 14.0mph /  22.5km/h 29.0mph /  46.7km/h 84% 0.00in /  0mm
15:34 47.0 °F /  8.3 °C 42.4 °F /  5.8 °C 29.48in /  998.2hPa WSW 15.0mph /  24.1km/h 30.0mph /  48.3km/h 84% 0.00in /  0mm
15:39 47.0 °F /  8.3 °C 42.4 °F /  5.8 °C 29.48in /  998.2hPa SW 16.0mph /  25.7km/h 36.0mph /  57.9km/h 84% 0.00in /  0mm
15:44 46.9 °F /  8.3 °C 42.3 °F /  5.7 °C 29.48in /  998.2hPa WSW 9.0mph /  14.5km/h 27.0mph /  43.5km/h 84% 0.00in /  0mm
15:49 46.8 °F /  8.2 °C 42.2 °F /  5.7 °C 29.48in /  998.2hPa South 13.0mph /  20.9km/h 24.0mph /  38.6km/h 84% 0.00in /  0mm
15:54 46.7 °F /  8.2 °C 42.4 °F /  5.8 °C 29.49in /  998.5hPa WSW 15.0mph /  24.1km/h 29.0mph /  46.7km/h 85% 0.00in /  0mm
15:59 46.4 °F /  8 °C 42.1 °F /  5.6 °C 29.49in /  998.5hPa WSW 15.0mph /  24.1km/h 30.0mph /  48.3km/h 85% 0.00in /  0mm
16:04 46.2 °F /  7.9 °C 41.9 °F /  5.5 °C 29.49in /  998.5hPa WSW 14.0mph /  22.5km/h 30.0mph /  48.3km/h 85% 0.00in /  0mm
16:09 46.1 °F /  7.8 °C 41.8 °F /  5.4 °C 29.49in /  998.5hPa WNW 16.0mph /  25.7km/h 24.0mph /  38.6km/h 85% 0.00in /  0mm
16:14 45.8 °F /  7.7 °C 41.5 °F /  5.3 °C 29.50in /  998.9hPa South 13.0mph /  20.9km/h 27.0mph /  43.5km/h 85% 0.00in /  0mm
16:19 45.7 °F /  7.6 °C 41.4 °F /  5.2 °C 29.49in /  998.5hPa SW 14.0mph /  22.5km/h 24.0mph /  38.6km/h 85% 0.00in /  0mm
16:24 45.6 °F /  7.6 °C 41.7 °F /  5.4 °C 29.49in /  998.5hPa WSW 19.0mph /  30.6km/h 27.0mph /  43.5km/h 86% 0.00in /  0mm
16:29 45.6 °F /  7.6 °C 41.7 °F /  5.4 °C 29.50in /  998.9hPa SW 15.0mph /  24.1km/h 29.0mph /  46.7km/h 86% 0.00in /  0mm
16:34 45.5 °F /  7.5 °C 41.3 °F /  5.2 °C 29.50in /  998.9hPa WSW 16.0mph /  25.7km/h 33.0mph /  53.1km/h 85% 0.00in /  0mm
16:39 45.4 °F /  7.4 °C 41.2 °F /  5.1 °C 29.50in /  998.9hPa WSW 15.0mph /  24.1km/h 33.0mph /  53.1km/h 85% 0.00in /  0mm
16:44 45.5 °F /  7.5 °C 41.6 °F /  5.3 °C 29.50in /  998.9hPa WSW 14.0mph /  22.5km/h 29.0mph /  46.7km/h 86% 0.00in /  0mm
16:49 45.6 °F /  7.6 °C 41.7 °F /  5.4 °C 29.51in /  999.2hPa SW 11.0mph /  17.7km/h 27.0mph /  43.5km/h 86% 0.00in /  0mm
16:54 45.6 °F /  7.6 °C 41.7 °F /  5.4 °C 29.52in /  999.5hPa WSW 12.0mph /  19.3km/h 22.0mph /  35.4km/h 86% 0.00in /  0mm
16:59 45.6 °F /  7.6 °C 41.7 °F /  5.4 °C 29.52in /  999.5hPa West 9.0mph /  14.5km/h 24.0mph /  38.6km/h 86% 0.00in /  0mm
17:04 45.5 °F /  7.5 °C 41.6 °F /  5.3 °C 29.52in /  999.5hPa WSW 13.0mph /  20.9km/h 29.0mph /  46.7km/h 86% 0.00in /  0mm
17:09 45.4 °F /  7.4 °C 41.5 °F /  5.3 °C 29.52in /  999.5hPa SSW 12.0mph /  19.3km/h 23.0mph /  37km/h 86% 0.00in /  0mm
17:14 45.3 °F /  7.4 °C 41.7 °F /  5.4 °C 29.52in /  999.5hPa West 10.0mph /  16.1km/h 21.0mph /  33.8km/h 87% 0.00in /  0mm
17:19 45.2 °F /  7.3 °C 41.6 °F /  5.3 °C 29.53in /  999.9hPa WSW 12.0mph /  19.3km/h 24.0mph /  38.6km/h 87% 0.00in /  0mm
17:24 45.2 °F /  7.3 °C 41.9 °F /  5.5 °C 29.53in /  999.9hPa West 12.0mph /  19.3km/h 22.0mph /  35.4km/h 88% 0.00in /  0mm
17:29 45.1 °F /  7.3 °C 41.8 °F /  5.4 °C 29.53in /  999.9hPa WSW 13.0mph /  20.9km/h 22.0mph /  35.4km/h 88% 0.00in /  0mm
17:34 45.0 °F /  7.2 °C 41.4 °F /  5.2 °C 29.53in /  999.9hPa WSW 13.0mph /  20.9km/h 29.0mph /  46.7km/h 87% 0.00in /  0mm
17:39 44.8 °F /  7.1 °C 41.2 °F /  5.1 °C 29.54in /  1000.2hPa WSW 12.0mph /  19.3km/h 29.0mph /  46.7km/h 87% 0.00in /  0mm
17:44 44.7 °F /  7.1 °C 41.1 °F /  5.1 °C 29.54in /  1000.2hPa WSW 11.0mph /  17.7km/h 25.0mph /  40.2km/h 87% 0.00in /  0mm
17:49 44.5 °F /  6.9 °C 40.9 °F /  4.9 °C 29.54in /  1000.2hPa WSW 12.0mph /  19.3km/h 25.0mph /  40.2km/h 87% 0.00in /  0mm
17:54 44.4 °F /  6.9 °C 40.8 °F /  4.9 °C 29.55in /  1000.6hPa WSW 13.0mph /  20.9km/h 26.0mph /  41.8km/h 87% 0.00in /  0mm
17:59 44.2 °F /  6.8 °C 40.6 °F /  4.8 °C 29.56in /  1000.9hPa NW 10.0mph /  16.1km/h 22.0mph /  35.4km/h 87% 0.00in /  0mm
18:04 44.2 °F /  6.8 °C 40.9 °F /  4.9 °C 29.55in /  1000.6hPa WSW 7.0mph /  11.3km/h 21.0mph /  33.8km/h 88% 0.00in /  0mm
18:09 44.1 °F /  6.7 °C 41.1 °F /  5.1 °C 29.56in /  1000.9hPa WSW 13.0mph /  20.9km/h 24.0mph /  38.6km/h 89% 0.00in /  0mm
18:14 43.8 °F /  6.6 °C 40.8 °F /  4.9 °C 29.56in /  1000.9hPa WSW 12.0mph /  19.3km/h 24.0mph /  38.6km/h 89% 0.00in /  0mm
18:19 43.6 °F /  6.4 °C 40.6 °F /  4.8 °C 29.56in /  1000.9hPa SW 12.0mph /  19.3km/h 26.0mph /  41.8km/h 89% 0.00in /  0mm
18:24 43.5 °F /  6.4 °C 40.5 °F /  4.7 °C 29.56in /  1000.9hPa WSW 17.0mph /  27.4km/h 21.0mph /  33.8km/h 89% 0.00in /  0mm
18:29 43.2 °F /  6.2 °C 40.5 °F /  4.7 °C 29.57in /  1001.2hPa SSW 8.0mph /  12.9km/h 21.0mph /  33.8km/h 90% 0.00in /  0mm
18:34 43.1 °F /  6.2 °C 40.4 °F /  4.7 °C 29.58in /  1001.6hPa SW 9.0mph /  14.5km/h 21.0mph /  33.8km/h 90% 0.00in /  0mm
18:39 43.0 °F /  6.1 °C 40.3 °F /  4.6 °C 29.58in /  1001.6hPa WSW 12.0mph /  19.3km/h 21.0mph /  33.8km/h 90% 0.00in /  0mm
18:44 42.8 °F /  6 °C 40.1 °F /  4.5 °C 29.58in /  1001.6hPa WSW 11.0mph /  17.7km/h 21.0mph /  33.8km/h 90% 0.00in /  0mm
18:49 42.6 °F /  5.9 °C 39.9 °F /  4.4 °C 29.58in /  1001.6hPa WSW 12.0mph /  19.3km/h 21.0mph /  33.8km/h 90% 0.00in /  0mm
18:54 42.5 °F /  5.8 °C 39.8 °F /  4.3 °C 29.58in /  1001.6hPa WSW 11.0mph /  17.7km/h 20.0mph /  32.2km/h 90% 0.00in /  0mm
18:59 42.5 °F /  5.8 °C 39.5 °F /  4.2 °C 29.59in /  1001.9hPa South 5.0mph /  8km/h 20.0mph /  32.2km/h 89% 0.00in /  0mm
19:04 42.5 °F /  5.8 °C 39.5 °F /  4.2 °C 29.59in /  1001.9hPa WSW 10.0mph /  16.1km/h 20.0mph /  32.2km/h 89% 0.00in /  0mm
19:09 42.5 °F /  5.8 °C 39.5 °F /  4.2 °C 29.59in /  1001.9hPa WSW 8.0mph /  12.9km/h 20.0mph /  32.2km/h 89% 0.00in /  0mm
19:14 42.6 °F /  5.9 °C 39.9 °F /  4.4 °C 29.60in /  1002.3hPa WSW 10.0mph /  16.1km/h 20.0mph /  32.2km/h 90% 0.00in /  0mm
19:19 42.8 °F /  6 °C 40.1 °F /  4.5 °C 29.60in /  1002.3hPa WSW 9.0mph /  14.5km/h 19.0mph /  30.6km/h 90% 0.00in /  0mm
19:24 42.8 °F /  6 °C 40.1 °F /  4.5 °C 29.60in /  1002.3hPa WSW 9.0mph /  14.5km/h 17.0mph /  27.4km/h 90% 0.00in /  0mm
19:29 42.9 °F /  6.1 °C 40.2 °F /  4.6 °C 29.61in /  1002.6hPa West 13.0mph /  20.9km/h 14.0mph /  22.5km/h 90% 0.00in /  0mm
19:34 43.0 °F /  6.1 °C 40.3 °F /  4.6 °C 29.61in /  1002.6hPa West 9.0mph /  14.5km/h 15.0mph /  24.1km/h 90% 0.00in /  0mm
19:39 43.0 °F /  6.1 °C 40.3 °F /  4.6 °C 29.61in /  1002.6hPa SW 6.0mph /  9.7km/h 15.0mph /  24.1km/h 90% 0.00in /  0mm
19:44 43.1 °F /  6.2 °C 40.4 °F /  4.7 °C 29.61in /  1002.6hPa WSW 7.0mph /  11.3km/h 15.0mph /  24.1km/h 90% 0.00in /  0mm
19:49 43.3 °F /  6.3 °C 40.6 °F /  4.8 °C 29.61in /  1002.6hPa WSW 7.0mph /  11.3km/h 17.0mph /  27.4km/h 90% 0.00in /  0mm
19:54 43.3 °F /  6.3 °C 40.6 °F /  4.8 °C 29.62in /  1002.9hPa WSW 8.0mph /  12.9km/h 17.0mph /  27.4km/h 90% 0.00in /  0mm
19:59 43.3 °F /  6.3 °C 40.3 °F /  4.6 °C 29.62in /  1002.9hPa SW 8.0mph /  12.9km/h 13.0mph /  20.9km/h 89% 0.00in /  0mm
20:04 43.4 °F /  6.3 °C 40.4 °F /  4.7 °C 29.62in /  1002.9hPa WSW 7.0mph /  11.3km/h 13.0mph /  20.9km/h 89% 0.00in /  0mm
20:09 43.4 °F /  6.3 °C 40.1 °F /  4.5 °C 29.63in /  1003.3hPa SW 3.0mph /  4.8km/h 14.0mph /  22.5km/h 88% 0.00in /  0mm
20:14 43.4 °F /  6.3 °C 40.1 °F /  4.5 °C 29.63in /  1003.3hPa SW 10.0mph /  16.1km/h 13.0mph /  20.9km/h 88% 0.00in /  0mm
20:19 43.5 °F /  6.4 °C 39.9 °F /  4.4 °C 29.64in /  1003.6hPa WSW 8.0mph /  12.9km/h 16.0mph /  25.7km/h 87% 0.00in /  0mm
20:24 43.5 °F /  6.4 °C 39.9 °F /  4.4 °C 29.64in /  1003.6hPa WSW 8.0mph /  12.9km/h 16.0mph /  25.7km/h 87% 0.00in /  0mm
20:29 43.5 °F /  6.4 °C 39.9 °F /  4.4 °C 29.65in /  1003.9hPa WSW 7.0mph /  11.3km/h 15.0mph /  24.1km/h 87% 0.00in /  0mm
20:34 43.5 °F /  6.4 °C 39.9 °F /  4.4 °C 29.65in /  1003.9hPa WSW 7.0mph /  11.3km/h 15.0mph /  24.1km/h 87% 0.00in /  0mm
20:39 43.3 °F /  6.3 °C 39.7 °F /  4.3 °C 29.66in /  1004.3hPa SW 13.0mph /  20.9km/h 13.0mph /  20.9km/h 87% 0.00in /  0mm
20:44 43.0 °F /  6.1 °C 39.4 °F /  4.1 °C 29.66in /  1004.3hPa WSW 5.0mph /  8km/h 13.0mph /  20.9km/h 87% 0.00in /  0mm
20:49 42.8 °F /  6 °C 39.2 °F /  4 °C 29.67in /  1004.6hPa WSW 7.0mph /  11.3km/h 16.0mph /  25.7km/h 87% 0.00in /  0mm
20:54 42.8 °F /  6 °C 38.9 °F /  3.8 °C 29.67in /  1004.6hPa WSW 8.0mph /  12.9km/h 16.0mph /  25.7km/h 86% 0.00in /  0mm
20:59 42.9 °F /  6.1 °C 39.0 °F /  3.9 °C 29.67in /  1004.6hPa WSW 8.0mph /  12.9km/h 17.0mph /  27.4km/h 86% 0.00in /  0mm
21:04 42.9 °F /  6.1 °C 39.0 °F /  3.9 °C 29.67in /  1004.6hPa West 10.0mph /  16.1km/h 18.0mph /  29km/h 86% 0.00in /  0mm
21:09 42.9 °F /  6.1 °C 39.0 °F /  3.9 °C 29.68in /  1005hPa WSW 9.0mph /  14.5km/h 13.0mph /  20.9km/h 86% 0.00in /  0mm
21:14 42.7 °F /  5.9 °C 38.8 °F /  3.8 °C 29.68in /  1005hPa WSW 8.0mph /  12.9km/h 16.0mph /  25.7km/h 86% 0.00in /  0mm
21:19 42.3 °F /  5.7 °C 38.4 °F /  3.6 °C 29.69in /  1005.3hPa SW 5.0mph /  8km/h 14.0mph /  22.5km/h 86% 0.00in /  0mm
21:24 42.0 °F /  5.6 °C 38.1 °F /  3.4 °C 29.70in /  1005.6hPa SW 7.0mph /  11.3km/h 14.0mph /  22.5km/h 86% 0.00in /  0mm
21:29 41.6 °F /  5.3 °C 38.0 °F /  3.3 °C 29.70in /  1005.6hPa SW 7.0mph /  11.3km/h 14.0mph /  22.5km/h 87% 0.00in /  0mm
21:34 41.5 °F /  5.3 °C 37.9 °F /  3.3 °C 29.71in /  1006hPa SW 8.0mph /  12.9km/h 13.0mph /  20.9km/h 87% 0.00in /  0mm
21:39 41.4 °F /  5.2 °C 38.1 °F /  3.4 °C 29.70in /  1005.6hPa SW 8.0mph /  12.9km/h 14.0mph /  22.5km/h 88% 0.00in /  0mm
21:44 41.4 °F /  5.2 °C 38.1 °F /  3.4 °C 29.71in /  1006hPa SW 7.0mph /  11.3km/h 14.0mph /  22.5km/h 88% 0.00in /  0mm
21:49 41.3 °F /  5.2 °C 38.0 °F /  3.3 °C 29.71in /  1006hPa West 8.0mph /  12.9km/h 16.0mph /  25.7km/h 88% 0.00in /  0mm
21:54 41.2 °F /  5.1 °C 37.9 °F /  3.3 °C 29.71in /  1006hPa SW 10.0mph /  16.1km/h 17.0mph /  27.4km/h 88% 0.00in /  0mm
21:59 41.1 °F /  5.1 °C 37.8 °F /  3.2 °C 29.72in /  1006.3hPa SW 10.0mph /  16.1km/h 17.0mph /  27.4km/h 88% 0.00in /  0mm
22:04 40.9 °F /  4.9 °C 37.6 °F /  3.1 °C 29.72in /  1006.3hPa WSW 12.0mph /  19.3km/h 15.0mph /  24.1km/h 88% 0.00in /  0mm
22:09 40.9 °F /  4.9 °C 37.6 °F /  3.1 °C 29.73in /  1006.7hPa WSW 8.0mph /  12.9km/h 13.0mph /  20.9km/h 88% 0.00in /  0mm
22:14 40.9 °F /  4.9 °C 37.6 °F /  3.1 °C 29.73in /  1006.7hPa SW 11.0mph /  17.7km/h 16.0mph /  25.7km/h 88% 0.00in /  0mm
22:19 40.9 °F /  4.9 °C 37.6 °F /  3.1 °C 29.73in /  1006.7hPa SW 6.0mph /  9.7km/h 14.0mph /  22.5km/h 88% 0.00in /  0mm
22:24 40.9 °F /  4.9 °C 37.6 °F /  3.1 °C 29.73in /  1006.7hPa WSW 6.0mph /  9.7km/h 16.0mph /  25.7km/h 88% 0.00in /  0mm
22:29 40.7 °F /  4.8 °C 37.1 °F /  2.8 °C 29.73in /  1006.7hPa WSW 8.0mph /  12.9km/h 16.0mph /  25.7km/h 87% 0.00in /  0mm
22:34 40.7 °F /  4.8 °C 37.1 °F /  2.8 °C 29.73in /  1006.7hPa WSW 9.0mph /  14.5km/h 18.0mph /  29km/h 87% 0.00in /  0mm
22:39 40.7 °F /  4.8 °C 37.1 °F /  2.8 °C 29.74in /  1007hPa WSW 9.0mph /  14.5km/h 18.0mph /  29km/h 87% 0.00in /  0mm
22:44 40.7 °F /  4.8 °C 37.1 °F /  2.8 °C 29.73in /  1006.7hPa WSW 8.0mph /  12.9km/h 19.0mph /  30.6km/h 87% 0.00in /  0mm
22:49 40.7 °F /  4.8 °C 37.1 °F /  2.8 °C 29.74in /  1007hPa WSW 8.0mph /  12.9km/h 17.0mph /  27.4km/h 87% 0.00in /  0mm
22:54 40.7 °F /  4.8 °C 37.1 °F /  2.8 °C 29.74in /  1007hPa South 6.0mph /  9.7km/h 19.0mph /  30.6km/h 87% 0.00in /  0mm
22:59 40.7 °F /  4.8 °C 37.1 °F /  2.8 °C 29.74in /  1007hPa WSW 8.0mph /  12.9km/h 19.0mph /  30.6km/h 87% 0.00in /  0mm
23:04 40.8 °F /  4.9 °C 37.2 °F /  2.9 °C 29.75in /  1007.3hPa WSW 7.0mph /  11.3km/h 15.0mph /  24.1km/h 87% 0.00in /  0mm
23:09 40.9 °F /  4.9 °C 37.3 °F /  2.9 °C 29.75in /  1007.3hPa WSW 7.0mph /  11.3km/h 15.0mph /  24.1km/h 87% 0.00in /  0mm
23:14 40.9 °F /  4.9 °C 37.3 °F /  2.9 °C 29.75in /  1007.3hPa WSW 11.0mph /  17.7km/h 14.0mph /  22.5km/h 87% 0.00in /  0mm
23:19 40.9 °F /  4.9 °C 37.3 °F /  2.9 °C 29.75in /  1007.3hPa SW 8.0mph /  12.9km/h 15.0mph /  24.1km/h 87% 0.00in /  0mm
23:24 40.8 °F /  4.9 °C 37.2 °F /  2.9 °C 29.76in /  1007.7hPa West 8.0mph /  12.9km/h 16.0mph /  25.7km/h 87% 0.00in /  0mm
23:29 40.8 °F /  4.9 °C 36.9 °F /  2.7 °C 29.76in /  1007.7hPa West 4.0mph /  6.4km/h 17.0mph /  27.4km/h 86% 0.00in /  0mm
23:34 40.8 °F /  4.9 °C 37.2 °F /  2.9 °C 29.76in /  1007.7hPa WSW 8.0mph /  12.9km/h 18.0mph /  29km/h 87% 0.00in /  0mm
23:39 40.8 °F /  4.9 °C 37.2 °F /  2.9 °C 29.76in /  1007.7hPa WSW 8.0mph /  12.9km/h 18.0mph /  29km/h 87% 0.00in /  0mm
23:44 40.7 °F /  4.8 °C 37.1 °F /  2.8 °C 29.77in /  1008hPa WSW 8.0mph /  12.9km/h 15.0mph /  24.1km/h 87% 0.00in /  0mm
23:49 40.7 °F /  4.8 °C 37.1 °F /  2.8 °C 29.76in /  1007.7hPa WSW 8.0mph /  12.9km/h 14.0mph /  22.5km/h 87% 0.00in /  0mm
23:54 40.5 °F /  4.7 °C 36.9 °F /  2.7 °C 29.76in /  1007.7hPa WSW 8.0mph /  12.9km/h 17.0mph /  27.4km/h 87% 0.00in /  0mm
23:59 40.4 °F /  4.7 °C 36.8 °F /  2.7 °C 29.76in /  1007.7hPa NW 7.0mph /  11.3km/h 14.0mph /  22.5km/h 87% 0.00in /  0mm
Buffalo, New York, USA
Compliments of Weather Underground - 2.5 mb